Time;durP1;ratioP1;P1;durP2;ratioP2;P2;SDS_P1;SDS_P2;PMS_P1;PMS_P2;Temp;Humidity;BMP_temperature;BMP_pressure;BME280_temperature;BME280_humidity;BME280_pressure;Samples;Min_cycle;Max_cycle;Signal;HPM_P1;HPM_P2
2023/07/26 00:02:18;;;;;;;;;;;;;;;;;;4991159;28;20506;-64
2023/07/26 00:04:44;;;;;;;;;;;;;;;;;;4993525;28;19949;-64
2023/07/26 00:07:10;;;;;;;;;;;;;;;;;;4994841;28;19929;-64
2023/07/26 00:09:36;;;;;;;;;;;;;;;;;;4994852;28;20350;-64
2023/07/26 00:12:02;;;;;;;;;;;;;;;;;;4993059;28;19929;-64
2023/07/26 00:14:28;;;;;;;;;;;;;;;;;;4993126;28;19921;-64
2023/07/26 00:16:54;;;;;;;;;;;;;;;;;;4992996;28;19926;-64
2023/07/26 00:19:20;;;;;;;;;;;;;;;;;;4994730;28;19976;-65
2023/07/26 00:21:46;;;;;;;;;;;;;;;;;;4993473;28;19980;-64
2023/07/26 00:24:12;;;;;;;;;;;;;;;;;;4976897;28;20061;-64
2023/07/26 00:26:38;;;;;;;;;;;;;;;;;;4994748;28;19925;-64
2023/07/26 00:29:04;;;;;;;;;;;;;;;;;;4975422;28;19921;-64
2023/07/26 00:31:30;;;;;;;;;;;;;;;;;;4985794;28;19929;-64
2023/07/26 00:33:56;;;;;;;;;;;;;;;;;;4974129;28;19972;-64
2023/07/26 00:36:22;;;;;;;;;;;;;;;;;;4991445;28;20455;-64
2023/07/26 00:38:48;;;;;;;;;;;;;;;;;;4992366;28;20295;-64
2023/07/26 00:41:13;;;;;;;;;;;;;;;;;;4975882;28;19926;-64
2023/07/26 00:43:39;;;;;;;;;;;;;;;;;;4994083;28;20364;-64
2023/07/26 00:46:05;;;;;;;;;;;;;;;;;;4993467;28;19930;-64
2023/07/26 00:48:31;;;;;;;;;;;;;;;;;;4992371;28;20028;-65
2023/07/26 00:50:57;;;;;;;;;;;;;;;;;;4974677;28;19977;-64
2023/07/26 00:53:23;;;;;;;;;;;;;;;;;;4990239;28;19984;-64
2023/07/26 00:55:49;;;;;;;;;;;;;;;;;;4992605;28;19926;-64
2023/07/26 00:58:15;;;;;;;;;;;;;;;;;;4989929;28;20332;-64
2023/07/26 01:00:41;;;;;;;;;;;;;;;;;;4990653;28;20002;-64
2023/07/26 01:03:07;;;;;;;;;;;;;;;;;;4992398;28;19925;-64
2023/07/26 01:05:33;;;;;;;;;;;;;;;;;;4990695;28;20683;-64
2023/07/26 01:07:59;;;;;;;;;;;;;;;;;;4993519;28;20261;-64
2023/07/26 01:10:25;;;;;;;;;;;;;;;;;;4993508;28;19926;-64
2023/07/26 01:12:51;;;;;;;;;;;;;;;;;;4999756;28;19949;-64
2023/07/26 01:15:16;;;;;;;;;;;;;;;;;;4988467;28;19976;-64
2023/07/26 01:17:42;;;;;;;;;;;;;;;;;;4990655;28;20346;-64
2023/07/26 01:20:08;;;;;;;;;;;;;;;;;;4990857;28;20536;-64
2023/07/26 01:22:34;;;;;;;;;;;;;;;;;;4992216;28;19925;-64
2023/07/26 01:25:00;;;;;;;;;;;;;;;;;;4990993;28;19926;-64
2023/07/26 01:27:26;;;;;;;;;;;;;;;;;;4992560;28;20003;-65
2023/07/26 01:29:55;;;;;;;;;;;;;;;;;;4992235;28;19928;-65
2023/07/26 01:32:21;;;;;;;;;;;;;;;;;;4992243;28;19922;-64
2023/07/26 01:34:47;;;;;;;;;;;;;;;;;;4992764;28;19925;-64
2023/07/26 01:37:13;;;;;;;;;;;;;;;;;;4991682;28;19922;-64
2023/07/26 01:39:39;;;;;;;;;;;;;;;;;;4994075;28;20383;-64
2023/07/26 01:42:04;;;;;;;;;;;;;;;;;;4992621;28;19926;-64
2023/07/26 01:44:30;;;;;;;;;;;;;;;;;;4989020;28;19925;-64
2023/07/26 01:46:56;;;;;;;;;;;;;;;;;;4991400;28;19922;-64
2023/07/26 01:49:22;;;;;;;;;;;;;;;;;;4992186;28;20001;-64
2023/07/26 01:51:48;;;;;;;;;;;;;;;;;;4968572;28;19926;-64
2023/07/26 01:54:14;;;;;;;;;;;;;;;;;;4992047;28;20364;-64
2023/07/26 01:56:40;;;;;;;;;;;;;;;;;;4992580;28;19922;-64
2023/07/26 01:59:06;;;;;;;;;;;;;;;;;;4993000;28;19932;-64
2023/07/26 02:01:32;;;;;;;;;;;;;;;;;;4992581;28;20472;-64
2023/07/26 02:03:57;;;;;;;;;;;;;;;;;;4978148;28;19988;-64
2023/07/26 02:06:23;;;;;;;;;;;;;;;;;;4990305;28;19928;-64
2023/07/26 02:08:49;;;;;;;;;;;;;;;;;;4971823;28;19922;-64
2023/07/26 02:11:15;;;;;;;;;;;;;;;;;;4990563;28;19926;-64
2023/07/26 02:13:41;;;;;;;;;;;;;;;;;;4989212;28;19938;-64
2023/07/26 02:16:07;;;;;;;;;;;;;;;;;;4987429;28;19926;-64
2023/07/26 02:18:33;;;;;;;;;;;;;;;;;;4973834;28;20359;-64
2023/07/26 02:20:59;;;;;;;;;;;;;;;;;;4992331;28;19966;-64
2023/07/26 02:23:25;;;;;;;;;;;;;;;;;;4992259;28;19961;-64
2023/07/26 02:25:50;;;;;;;;;;;;;;;;;;4990695;28;20330;-64
2023/07/26 02:28:16;;;;;;;;;;;;;;;;;;4990816;28;20359;-64
2023/07/26 02:30:42;;;;;;;;;;;;;;;;;;4987718;28;19965;-64
2023/07/26 02:33:08;;;;;;;;;;;;;;;;;;4991560;28;19945;-65
2023/07/26 02:35:34;;;;;;;;;;;;;;;;;;4991203;28;20385;-65
2023/07/26 02:38:00;;;;;;;;;;;;;;;;;;4991224;28;20588;-64
2023/07/26 02:40:26;;;;;;;;;;;;;;;;;;4976308;28;19930;-64
2023/07/26 02:42:52;;;;;;;;;;;;;;;;;;4992182;28;19925;-64
2023/07/26 02:45:18;;;;;;;;;;;;;;;;;;4989070;28;19925;-64
2023/07/26 02:47:43;;;;;;;;;;;;;;;;;;4990495;28;19921;-64
2023/07/26 02:50:09;;;;;;;;;;;;;;;;;;4990998;28;20268;-64
2023/07/26 02:52:35;;;;;;;;;;;;;;;;;;4983413;28;19968;-64
2023/07/26 02:55:01;;;;;;;;;;;;;;;;;;4988640;28;19926;-64
2023/07/26 02:57:27;;;;;;;;;;;;;;;;;;4990848;28;20387;-64
2023/07/26 02:59:53;;;;;;;;;;;;;;;;;;4991434;28;19922;-64
2023/07/26 03:02:19;;;;;;;;;;;;;;;;;;4989672;28;19929;-64
2023/07/26 03:04:45;;;;;;;;;;;;;;;;;;4989614;28;19936;-64
2023/07/26 03:07:11;;;;;;;;;;;;;;;;;;4990420;28;19941;-64
2023/07/26 03:09:37;;;;;;;;;;;;;;;;;;4991176;28;19922;-64
2023/07/26 03:12:02;;;;;;;;;;;;;;;;;;4986629;28;19926;-64
2023/07/26 03:14:28;;;;;;;;;;;;;;;;;;4988963;28;19926;-64
2023/07/26 03:16:54;;;;;;;;;;;;;;;;;;4987357;28;19930;-64
2023/07/26 03:19:20;;;;;;;;;;;;;;;;;;4987653;28;19925;-64
2023/07/26 03:21:46;;;;;;;;;;;;;;;;;;4988877;28;20478;-64
2023/07/26 03:24:12;;;;;;;;;;;;;;;;;;4989432;28;21697;-64
2023/07/26 03:26:38;;;;;;;;;;;;;;;;;;4990151;28;19922;-64
2023/07/26 03:29:04;;;;;;;;;;;;;;;;;;4987643;28;19921;-64
2023/07/26 03:31:30;;;;;;;;;;;;;;;;;;4987485;28;20627;-64
2023/07/26 03:33:56;;;;;;;;;;;;;;;;;;4989802;28;19930;-64
2023/07/26 03:36:21;;;;;;;;;;;;;;;;;;4988851;28;19925;-64
2023/07/26 03:38:47;;;;;;;;;;;;;;;;;;4987324;28;19930;-64
2023/07/26 03:41:13;;;;;;;;;;;;;;;;;;4970187;28;19932;-64
2023/07/26 03:43:39;;;;;;;;;;;;;;;;;;4985813;28;19973;-64
2023/07/26 03:46:05;;;;;;;;;;;;;;;;;;4971188;28;20008;-64
2023/07/26 03:48:31;;;;;;;;;;;;;;;;;;4987258;28;19922;-64
2023/07/26 03:50:57;;;;;;;;;;;;;;;;;;4987589;28;21562;-64
2023/07/26 03:53:23;;;;;;;;;;;;;;;;;;4983414;28;19926;-64
2023/07/26 03:55:49;;;;;;;;;;;;;;;;;;4987695;28;19921;-64
2023/07/26 03:58:14;;;;;;;;;;;;;;;;;;4991728;28;19922;-64
2023/07/26 04:00:40;;;;;;;;;;;;;;;;;;4990480;28;20425;-64
2023/07/26 04:03:06;;;;;;;;;;;;;;;;;;4988903;28;19932;-64
2023/07/26 04:05:32;;;;;;;;;;;;;;;;;;4970633;28;20323;-64
2023/07/26 04:07:58;;;;;;;;;;;;;;;;;;4975443;28;19925;-64
2023/07/26 04:10:26;;;;;;;;;;;;;;;;;;4991742;28;19929;-64
2023/07/26 04:12:52;;;;;;;;;;;;;;;;;;4990557;28;20383;-64
2023/07/26 04:15:18;;;;;;;;;;;;;;;;;;4990366;28;19925;-64
2023/07/26 04:17:44;;;;;;;;;;;;;;;;;;4962826;28;20431;-64
2023/07/26 04:20:10;;;;;;;;;;;;;;;;;;4971842;28;19996;-64
2023/07/26 04:22:36;;;;;;;;;;;;;;;;;;4972058;28;20024;-64
2023/07/26 04:25:01;;;;;;;;;;;;;;;;;;4973821;28;19976;-65
2023/07/26 04:27:27;;;;;;;;;;;;;;;;;;4974138;28;20400;-65
2023/07/26 04:29:53;;;;;;;;;;;;;;;;;;4991572;28;19925;-65
2023/07/26 04:32:19;;;;;;;;;;;;;;;;;;4990580;28;19922;-65
2023/07/26 04:34:45;;;;;;;;;;;;;;;;;;4990210;28;20404;-65
2023/07/26 04:37:11;;;;;;;;;;;;;;;;;;4993612;28;19921;-65
2023/07/26 04:39:37;;;;;;;;;;;;;;;;;;4995005;28;20020;-65
2023/07/26 04:42:03;;;;;;;;;;;;;;;;;;4985821;28;19933;-64
2023/07/26 04:44:29;;;;;;;;;;;;;;;;;;4995006;28;19926;-64
2023/07/26 04:46:54;;;;;;;;;;;;;;;;;;4994855;28;19926;-64
2023/07/26 04:49:20;;;;;;;;;;;;;;;;;;4994145;28;19922;-64
2023/07/26 04:51:46;;;;;;;;;;;;;;;;;;4993357;28;20429;-64
2023/07/26 04:54:12;;;;;;;;;;;;;;;;;;4993706;28;19921;-64
2023/07/26 04:56:38;;;;;;;;;;;;;;;;;;4993925;28;19926;-65
2023/07/26 04:59:04;;;;;;;;;;;;;;;;;;4993064;28;19992;-65
2023/07/26 05:01:30;;;;;;;;;;;;;;;;;;4992375;28;19926;-64
2023/07/26 05:03:56;;;;;;;;;;;;;;;;;;4975785;28;20516;-65
2023/07/26 05:06:24;;;;;;;;;;;;;;;;;;4992554;28;19952;-65
2023/07/26 05:08:51;;;;;;;;;;;;;;;;;;4993341;28;20175;-64
2023/07/26 05:11:20;;;;;;;;;;;;;;;;;;4994021;28;19964;-64
2023/07/26 05:13:47;;;;;;;;;;;;;;;;;;4992535;28;20499;-65
2023/07/26 05:16:13;;;;;;;;;;;;;;;;;;4992638;28;20048;-65
2023/07/26 05:18:38;;;;;;;;;;;;;;;;;;4992131;28;20397;-64
2023/07/26 05:21:04;;;;;;;;;;;;;;;;;;4991282;28;19930;-65
2023/07/26 05:23:30;;;;;;;;;;;;;;;;;;4992110;28;19953;-64
2023/07/26 05:25:56;;;;;;;;;;;;;;;;;;4992730;28;19929;-65
2023/07/26 05:28:22;;;;;;;;;;;;;;;;;;4993412;28;19929;-65
2023/07/26 05:30:48;;;;;;;;;;;;;;;;;;4990254;28;20342;-65
2023/07/26 05:33:15;;;;;;;;;;;;;;;;;;4991168;28;19972;-65
2023/07/26 05:35:40;;;;;;;;;;;;;;;;;;4991381;28;20019;-64
2023/07/26 05:38:06;;;;;;;;;;;;;;;;;;4991191;28;19976;-65
2023/07/26 05:40:33;;;;;;;;;;;;;;;;;;4992090;28;19969;-64
2023/07/26 05:42:58;;;;;;;;;;;;;;;;;;4989804;28;19930;-65
2023/07/26 05:45:24;;;;;;;;;;;;;;;;;;4990930;28;20286;-65
2023/07/26 05:47:50;;;;;;;;;;;;;;;;;;4983260;28;19933;-65
2023/07/26 05:50:16;;;;;;;;;;;;;;;;;;4974241;28;20000;-65
2023/07/26 05:52:43;;;;;;;;;;;;;;;;;;4990056;28;19921;-65
2023/07/26 05:55:09;;;;;;;;;;;;;;;;;;4989904;28;20359;-65
2023/07/26 05:57:35;;;;;;;;;;;;;;;;;;4991733;28;20016;-65
2023/07/26 06:00:01;;;;;;;;;;;;;;;;;;4992706;28;19979;-65
2023/07/26 06:02:27;;;;;;;;;;;;;;;;;;4989042;28;19926;-66
2023/07/26 06:04:53;;;;;;;;;;;;;;;;;;4990904;28;19926;-66
2023/07/26 06:07:19;;;;;;;;;;;;;;;;;;4990007;28;19926;-66
2023/07/26 06:09:45;;;;;;;;;;;;;;;;;;4973507;28;20301;-66
2023/07/26 06:12:10;;;;;;;;;;;;;;;;;;4989968;28;19930;-66
2023/07/26 06:14:36;;;;;;;;;;;;;;;;;;4992312;28;19972;-66
2023/07/26 06:17:02;;;;;;;;;;;;;;;;;;4983865;28;19926;-66
2023/07/26 06:19:28;;;;;;;;;;;;;;;;;;4991361;28;20411;-66
2023/07/26 06:21:55;;;;;;;;;;;;;;;;;;4986073;28;19930;-66
2023/07/26 06:24:22;;;;;;;;;;;;;;;;;;4987451;28;19922;-66
2023/07/26 06:26:48;;;;;;;;;;;;;;;;;;4983156;28;19926;-66
2023/07/26 06:29:14;;;;;;;;;;;;;;;;;;4991767;28;20383;-66
2023/07/26 06:31:40;;;;;;;;;;;;;;;;;;4989925;28;19922;-66
2023/07/26 06:34:06;;;;;;;;;;;;;;;;;;4989752;28;19933;-66
2023/07/26 06:36:32;;;;;;;;;;;;;;;;;;4986380;28;19929;-66
2023/07/26 06:38:57;;;;;;;;;;;;;;;;;;4985303;28;19925;-66
2023/07/26 06:41:23;;;;;;;;;;;;;;;;;;4991442;28;19926;-66
2023/07/26 06:43:50;;;;;;;;;;;;;;;;;;4978585;28;19921;-66
2023/07/26 06:46:16;;;;;;;;;;;;;;;;;;4983374;28;19992;-66
2023/07/26 06:48:42;;;;;;;;;;;;;;;;;;4989402;28;20319;-66
2023/07/26 06:51:07;;;;;;;;;;;;;;;;;;4984619;28;20271;-62
2023/07/26 06:53:33;;;;;;;;;;;;;;;;;;4992408;28;19933;-61
2023/07/26 06:55:59;;;;;;;;;;;;;;;;;;4992799;28;19932;-61
2023/07/26 06:58:25;;;;;;;;;;;;;;;;;;4992168;28;20458;-61
2023/07/26 07:00:51;;;;;;;;;;;;;;;;;;4991069;28;20379;-61
2023/07/26 07:03:17;;;;;;;;;;;;;;;;;;5004867;28;19926;-61
2023/07/26 07:05:43;;;;;;;;;;;;;;;;;;4991221;28;20295;-61
2023/07/26 07:08:09;;;;;;;;;;;;;;;;;;4977257;28;19928;-61
2023/07/26 07:10:35;;;;;;;;;;;;;;;;;;4973599;28;19929;-62
2023/07/26 07:13:01;;;;;;;;;;;;;;;;;;4992524;28;19925;-62
2023/07/26 07:15:27;;;;;;;;;;;;;;;;;;4992681;28;20462;-62
2023/07/26 07:17:53;;;;;;;;;;;;;;;;;;4992329;28;20005;-62
2023/07/26 07:20:18;;;;;;;;;;;;;;;;;;4990951;28;19933;-62
2023/07/26 07:22:44;;;;;;;;;;;;;;;;;;4972226;28;19929;-62
2023/07/26 07:25:10;;;;;;;;;;;;;;;;;;4992594;28;19928;-62
2023/07/26 07:27:36;;;;;;;;;;;;;;;;;;4992339;28;19972;-61
2023/07/26 07:30:02;;;;;;;;;;;;;;;;;;4992501;28;20021;-62
2023/07/26 07:32:28;;;;;;;;;;;;;;;;;;4992188;28;19933;-61
2023/07/26 07:34:54;;;;;;;;;;;;;;;;;;4991123;28;19922;-62
2023/07/26 07:37:20;;;;;;;;;;;;;;;;;;4989975;28;19922;-62
2023/07/26 07:39:46;;;;;;;;;;;;;;;;;;4972099;28;19973;-62
2023/07/26 07:42:12;;;;;;;;;;;;;;;;;;4972449;28;19980;-62
2023/07/26 07:44:38;;;;;;;;;;;;;;;;;;4969985;28;20359;-62
2023/07/26 07:47:04;;;;;;;;;;;;;;;;;;4959837;28;19965;-62
2023/07/26 07:49:30;;;;;;;;;;;;;;;;;;4971458;28;20017;-62
2023/07/26 07:51:56;;;;;;;;;;;;;;;;;;4986806;28;19929;-62
2023/07/26 07:54:22;;;;;;;;;;;;;;;;;;4990905;28;19921;-62
2023/07/26 07:56:47;;;;;;;;;;;;;;;;;;4985190;28;20094;-62
2023/07/26 07:59:13;;;;;;;;;;;;;;;;;;4971734;28;20048;-61
2023/07/26 08:01:39;;;;;;;;;;;;;;;;;;4977570;28;20395;-62
2023/07/26 08:04:06;;;;;;;;;;;;;;;;;;4991648;28;20130;-62
2023/07/26 08:06:32;;;;;;;;;;;;;;;;;;4974427;28;19925;-61
2023/07/26 08:08:58;;;;;;;;;;;;;;;;;;4992038;28;19992;-62
2023/07/26 08:11:24;;;;;;;;;;;;;;;;;;4995375;28;19973;-62
2023/07/26 08:13:50;;;;;;;;;;;;;;;;;;4978120;28;20619;-62
2023/07/26 08:16:16;;;;;;;;;;;;;;;;;;4995892;28;19936;-62
2023/07/26 08:18:42;;;;;;;;;;;;;;;;;;4994713;28;19922;-62
2023/07/26 08:21:08;;;;;;;;;;;;;;;;;;4995309;28;20351;-62
2023/07/26 08:23:34;;;;;;;;;;;;;;;;;;4993002;28;20423;-62
2023/07/26 08:25:59;;;;;;;;;;;;;;;;;;4995126;28;20000;-62
2023/07/26 08:28:25;;;;;;;;;;;;;;;;;;4995295;28;19980;-61
2023/07/26 08:30:51;;;;;;;;;;;;;;;;;;4995199;28;19973;-61
2023/07/26 08:33:17;;;;;;;;;;;;;;;;;;4995144;28;19922;-61
2023/07/26 08:35:43;;;;;;;;;;;;;;;;;;4993881;28;20399;-61
2023/07/26 08:38:09;;;;;;;;;;;;;;;;;;5056697;23;19960;-61
2023/07/26 08:40:35;;;;;;;;;;;;;;;;;;5054209;28;20257;-61
2023/07/26 08:43:01;;;;;;;;;;;;;;;;;;5054169;28;19920;-61
2023/07/26 08:45:26;;;;;;;;;;;;;;;;;;5035101;28;19932;-61
2023/07/26 08:47:53;;;;;;;;;;;;;;;;;;5034081;28;19948;-61
2023/07/26 08:50:19;;;;;;;;;;;;;;;;;;5034479;28;20457;-61
2023/07/26 08:52:45;;;;;;;;;;;;;;;;;;5034315;28;20029;-61
2023/07/26 08:55:11;;;;;;;;;;;;;;;;;;5048075;28;20392;-61
2023/07/26 08:57:37;;;;;;;;;;;;;;;;;;5054181;28;20534;-61
2023/07/26 09:00:05;;;;;;;;;;;;;;;;;;5053958;28;19920;-61
2023/07/26 09:02:31;;;;;;;;;;;;;;;;;;5052475;28;19921;-61
2023/07/26 09:04:57;;;;;;;;;;;;;;;;;;5053288;28;19932;-61
2023/07/26 09:07:23;;;;;;;;;;;;;;;;;;5054121;28;19920;-61
2023/07/26 09:09:49;;;;;;;;;;;;;;;;;;5053860;28;19928;-61
2023/07/26 09:12:15;;;;;;;;;;;;;;;;;;5035533;28;19921;-61
2023/07/26 09:14:41;;;;;;;;;;;;;;;;;;5053742;28;20264;-61
2023/07/26 09:17:07;;;;;;;;;;;;;;;;;;5053734;28;20051;-61
2023/07/26 09:19:33;;;;;;;;;;;;;;;;;;5044727;28;20023;-61
2023/07/26 09:21:59;;;;;;;;;;;;;;;;;;5051362;28;20653;-61
2023/07/26 09:24:25;;;;;;;;;;;;;;;;;;5051404;28;20513;-61
2023/07/26 09:26:51;;;;;;;;;;;;;;;;;;5053721;28;19920;-61
2023/07/26 09:29:17;;;;;;;;;;;;;;;;;;5053511;28;19924;-61
2023/07/26 09:31:43;;;;;;;;;;;;;;;;;;5053788;28;19990;-61
2023/07/26 09:34:09;;;;;;;;;;;;;;;;;;5035326;28;19921;-61
2023/07/26 09:36:35;;;;;;;;;;;;;;;;;;5053199;28;20003;-61
2023/07/26 09:39:01;;;;;;;;;;;;;;;;;;5049542;28;20004;-61
2023/07/26 09:41:27;;;;;;;;;;;;;;;;;;5015594;28;19939;-61
2023/07/26 09:43:53;;;;;;;;;;;;;;;;;;5033301;28;19968;-61
2023/07/26 09:46:20;;;;;;;;;;;;;;;;;;5046073;28;19956;-61
2023/07/26 09:48:46;;;;;;;;;;;;;;;;;;5053144;28;19931;-61
2023/07/26 09:51:12;;;;;;;;;;;;;;;;;;5053341;28;20011;-60
2023/07/26 09:53:38;;;;;;;;;;;;;;;;;;5052881;28;19937;-60
2023/07/26 09:56:04;;;;;;;;;;;;;;;;;;5032707;28;19925;-60
2023/07/26 09:58:30;;;;;;;;;;;;;;;;;;5033047;28;19930;-60
2023/07/26 10:00:56;;;;;;;;;;;;;;;;;;5032799;28;20023;-60
2023/07/26 10:03:22;;;;;;;;;;;;;;;;;;5043162;28;19932;-60
2023/07/26 10:05:50;;;;;;;;;;;;;;;;;;5052778;28;19924;-61
2023/07/26 10:08:16;;;;;;;;;;;;;;;;;;5052867;28;19925;-60
2023/07/26 10:10:42;;;;;;;;;;;;;;;;;;5052392;28;19921;-60
2023/07/26 10:13:08;;;;;;;;;;;;;;;;;;5052691;28;19990;-60
2023/07/26 10:15:34;;;;;;;;;;;;;;;;;;5052636;28;20270;-60
2023/07/26 10:18:00;;;;;;;;;;;;;;;;;;5050290;28;19921;-61
2023/07/26 10:20:26;;;;;;;;;;;;;;;;;;5032528;28;19929;-60
2023/07/26 10:22:52;;;;;;;;;;;;;;;;;;5032544;28;19925;-60
2023/07/26 10:25:18;;;;;;;;;;;;;;;;;;5044082;28;19927;-61
2023/07/26 10:27:44;;;;;;;;;;;;;;;;;;5052142;28;19921;-60
2023/07/26 10:30:10;;;;;;;;;;;;;;;;;;5052250;28;19920;-60
2023/07/26 10:32:36;;;;;;;;;;;;;;;;;;5052428;28;19943;-60
2023/07/26 10:35:02;;;;;;;;;;;;;;;;;;5050589;28;19921;-61
2023/07/26 10:37:29;;;;;;;;;;;;;;;;;;5052042;28;20376;-60
2023/07/26 10:39:55;;;;;;;;;;;;;;;;;;5052154;28;19979;-61
2023/07/26 10:42:22;;;;;;;;;;;;;;;;;;5052107;28;19928;-61
2023/07/26 10:44:48;;;;;;;;;;;;;;;;;;5051745;28;20325;-60
2023/07/26 10:47:14;;;;;;;;;;;;;;;;;;5034184;28;19921;-61
2023/07/26 10:49:40;;;;;;;;;;;;;;;;;;5052092;28;19921;-60
2023/07/26 10:52:06;;;;;;;;;;;;;;;;;;5049785;28;20431;-60
2023/07/26 10:54:32;;;;;;;;;;;;;;;;;;5051477;28;19954;-60
2023/07/26 10:56:58;;;;;;;;;;;;;;;;;;5051871;28;19924;-60
2023/07/26 10:59:25;;;;;;;;;;;;;;;;;;5051634;28;19988;-60
2023/07/26 11:01:53;;;;;;;;;;;;;;;;;;5050957;28;21216;-60
2023/07/26 11:04:19;;;;;;;;;;;;;;;;;;5051886;28;20265;-60
2023/07/26 11:06:45;;;;;;;;;;;;;;;;;;5051722;28;19925;-60
2023/07/26 11:09:11;;;;;;;;;;;;;;;;;;5032835;28;19921;-60
2023/07/26 11:11:36;;;;;;;;;;;;;;;;;;5033540;28;19928;-60
2023/07/26 11:14:02;;;;;;;;;;;;;;;;;;5032197;28;19921;-60
2023/07/26 11:16:28;;;;;;;;;;;;;;;;;;5013958;28;20409;-60
2023/07/26 11:18:54;;;;;;;;;;;;;;;;;;5042836;28;19921;-60
2023/07/26 11:21:20;;;;;;;;;;;;;;;;;;5051742;28;20334;-60
2023/07/26 11:23:46;;;;;;;;;;;;;;;;;;5051755;28;19929;-60
2023/07/26 11:26:12;;;;;;;;;;;;;;;;;;5047519;28;19928;-60
2023/07/26 11:28:38;;;;;;;;;;;;;;;;;;5050929;28;19920;-60
2023/07/26 11:31:04;;;;;;;;;;;;;;;;;;5051688;28;20027;-60
2023/07/26 11:33:29;;;;;;;;;;;;;;;;;;5051612;28;19986;-60
2023/07/26 11:35:55;;;;;;;;;;;;;;;;;;5051041;28;19920;-61
2023/07/26 11:38:21;;;;;;;;;;;;;;;;;;5050131;28;19925;-61
2023/07/26 11:40:50;;;;;;;;;;;;;;;;;;5048910;28;19932;-61
2023/07/26 11:43:15;;;;;;;;;;;;;;;;;;5051543;28;19944;-61
2023/07/26 11:45:41;;;;;;;;;;;;;;;;;;5054191;28;20266;-60
2023/07/26 11:48:09;;;;;;;;;;;;;;;;;;5055437;28;19920;-61
2023/07/26 11:50:35;;;;;;;;;;;;;;;;;;5053875;28;19925;-61
2023/07/26 11:53:01;;;;;;;;;;;;;;;;;;5037063;28;20393;-61
2023/07/26 11:55:27;;;;;;;;;;;;;;;;;;5055118;28;19928;-61
2023/07/26 11:57:53;;;;;;;;;;;;;;;;;;5055401;28;20326;-61
2023/07/26 12:00:19;;;;;;;;;;;;;;;;;;5051349;28;19921;-61
2023/07/26 12:02:45;;;;;;;;;;;;;;;;;;5052907;28;19925;-61
2023/07/26 12:05:12;;;;;;;;;;;;;;;;;;5035293;28;19925;-61
2023/07/26 12:07:38;;;;;;;;;;;;;;;;;;5034954;28;19948;-61
2023/07/26 12:10:05;;;;;;;;;;;;;;;;;;5045594;28;19925;-61
2023/07/26 12:12:31;;;;;;;;;;;;;;;;;;5053363;28;19925;-61
2023/07/26 12:14:57;;;;;;;;;;;;;;;;;;5055197;28;19924;-61
2023/07/26 12:17:23;;;;;;;;;;;;;;;;;;5054830;28;19924;-61
2023/07/26 12:19:48;;;;;;;;;;;;;;;;;;5055151;28;19942;-61
2023/07/26 12:22:14;;;;;;;;;;;;;;;;;;5020000;28;19931;-61
2023/07/26 12:24:40;;;;;;;;;;;;;;;;;;5054802;28;20353;-61
2023/07/26 12:27:06;;;;;;;;;;;;;;;;;;5052808;28;19924;-61
2023/07/26 12:29:33;;;;;;;;;;;;;;;;;;5052965;28;20310;-61
2023/07/26 12:31:59;;;;;;;;;;;;;;;;;;5054633;28;19921;-61
2023/07/26 12:34:25;;;;;;;;;;;;;;;;;;5054305;28;19929;-61
2023/07/26 12:36:56;;;;;;;;;;;;;;;;;;5054189;28;20354;-61
2023/07/26 12:39:22;;;;;;;;;;;;;;;;;;5054672;28;19948;-61
2023/07/26 12:41:48;;;;;;;;;;;;;;;;;;5035984;28;19932;-61
2023/07/26 12:44:14;;;;;;;;;;;;;;;;;;5054392;28;19920;-61
2023/07/26 12:46:40;;;;;;;;;;;;;;;;;;5053031;28;19931;-61
2023/07/26 12:49:07;;;;;;;;;;;;;;;;;;5054482;28;20374;-61
2023/07/26 12:51:33;;;;;;;;;;;;;;;;;;5053530;28;20441;-61
2023/07/26 12:54:01;;;;;;;;;;;;;;;;;;5053193;28;19936;-61
2023/07/26 12:56:27;;;;;;;;;;;;;;;;;;5052834;28;19929;-61
2023/07/26 12:58:52;;;;;;;;;;;;;;;;;;5053482;28;20321;-61
2023/07/26 13:01:18;;;;;;;;;;;;;;;;;;5052922;28;19925;-61
2023/07/26 13:03:44;;;;;;;;;;;;;;;;;;5033785;28;19925;-61
2023/07/26 13:06:10;;;;;;;;;;;;;;;;;;5053283;28;19924;-61
2023/07/26 13:08:36;;;;;;;;;;;;;;;;;;5034957;28;19983;-61
2023/07/26 13:11:02;;;;;;;;;;;;;;;;;;5052830;28;20370;-61
2023/07/26 13:13:28;;;;;;;;;;;;;;;;;;5053044;28;19925;-61
2023/07/26 13:15:54;;;;;;;;;;;;;;;;;;5035034;28;19925;-61
2023/07/26 13:18:20;;;;;;;;;;;;;;;;;;5053400;28;19982;-61
2023/07/26 13:20:46;;;;;;;;;;;;;;;;;;5026565;28;20375;-61
2023/07/26 13:23:12;;;;;;;;;;;;;;;;;;5025390;28;19925;-61
2023/07/26 13:25:38;;;;;;;;;;;;;;;;;;5040882;28;19925;-61
2023/07/26 13:28:04;;;;;;;;;;;;;;;;;;5043357;28;19920;-61
2023/07/26 13:30:29;;;;;;;;;;;;;;;;;;5045480;28;19928;-61
2023/07/26 13:32:55;;;;;;;;;;;;;;;;;;5050016;28;19936;-61
2023/07/26 13:35:21;;;;;;;;;;;;;;;;;;5052767;28;19924;-61
2023/07/26 13:37:47;;;;;;;;;;;;;;;;;;5053265;28;19925;-61
2023/07/26 13:40:13;;;;;;;;;;;;;;;;;;5034722;28;20389;-61
2023/07/26 13:42:39;;;;;;;;;;;;;;;;;;5039299;28;20020;-61
2023/07/26 13:45:05;;;;;;;;;;;;;;;;;;5031540;28;19925;-61
2023/07/26 13:47:31;;;;;;;;;;;;;;;;;;5049099;28;19936;-61
2023/07/26 13:49:57;;;;;;;;;;;;;;;;;;5048222;28;19921;-61
2023/07/26 13:52:23;;;;;;;;;;;;;;;;;;5053049;28;19931;-60
2023/07/26 13:54:49;;;;;;;;;;;;;;;;;;5053192;28;20062;-61
2023/07/26 13:57:15;;;;;;;;;;;;;;;;;;5048269;28;20273;-61
2023/07/26 13:59:41;;;;;;;;;;;;;;;;;;5044132;28;19921;-61
2023/07/26 14:02:07;;;;;;;;;;;;;;;;;;5041269;28;19939;-61
2023/07/26 14:04:32;;;;;;;;;;;;;;;;;;5046825;28;19971;-61
2023/07/26 14:06:58;;;;;;;;;;;;;;;;;;5047032;28;19920;-61
2023/07/26 14:09:24;;;;;;;;;;;;;;;;;;5039991;28;20426;-61
2023/07/26 14:11:50;;;;;;;;;;;;;;;;;;5049301;28;19931;-61
2023/07/26 14:14:16;;;;;;;;;;;;;;;;;;5047484;28;19929;-61
2023/07/26 14:16:42;;;;;;;;;;;;;;;;;;5046204;28;19966;-62
2023/07/26 14:19:08;;;;;;;;;;;;;;;;;;5051400;28;19921;-60
2023/07/26 14:21:34;;;;;;;;;;;;;;;;;;5046545;28;20069;-61
2023/07/26 14:24:00;;;;;;;;;;;;;;;;;;5047301;28;19932;-61
2023/07/26 14:26:25;;;;;;;;;;;;;;;;;;5031964;28;19925;-62
2023/07/26 14:28:51;;;;;;;;;;;;;;;;;;5050620;28;19979;-61
2023/07/26 14:31:17;;;;;;;;;;;;;;;;;;5047909;28;20677;-61
2023/07/26 14:33:43;;;;;;;;;;;;;;;;;;5048612;28;19924;-61
2023/07/26 14:36:09;;;;;;;;;;;;;;;;;;5027876;28;19920;-61
2023/07/26 14:38:36;;;;;;;;;;;;;;;;;;5046107;28;19924;-61
2023/07/26 14:41:02;;;;;;;;;;;;;;;;;;5049478;28;19933;-61
2023/07/26 14:43:28;;;;;;;;;;;;;;;;;;5051040;28;19927;-61
2023/07/26 14:45:53;;;;;;;;;;;;;;;;;;5047918;28;20007;-61
2023/07/26 14:48:19;;;;;;;;;;;;;;;;;;5050719;28;19921;-61
2023/07/26 14:50:45;;;;;;;;;;;;;;;;;;5050416;28;19924;-61
2023/07/26 14:53:11;;;;;;;;;;;;;;;;;;5049269;28;20450;-61
2023/07/26 14:55:37;;;;;;;;;;;;;;;;;;5030497;28;19928;-62
2023/07/26 14:58:03;;;;;;;;;;;;;;;;;;5020615;28;19925;-61
2023/07/26 15:00:29;;;;;;;;;;;;;;;;;;5048155;28;20506;-61
2023/07/26 15:02:55;;;;;;;;;;;;;;;;;;5049959;28;20016;-61
2023/07/26 15:05:21;;;;;;;;;;;;;;;;;;5049109;28;20450;-61
2023/07/26 15:07:46;;;;;;;;;;;;;;;;;;5034535;28;19955;-61
2023/07/26 15:10:12;;;;;;;;;;;;;;;;;;5048836;28;19925;-61
2023/07/26 15:12:38;;;;;;;;;;;;;;;;;;5046362;28;20365;-62
2023/07/26 15:15:04;;;;;;;;;;;;;;;;;;5048507;28;19958;-61
2023/07/26 15:17:30;;;;;;;;;;;;;;;;;;5048132;28;19920;-61
2023/07/26 15:19:56;;;;;;;;;;;;;;;;;;5047374;28;19936;-61
2023/07/26 15:22:22;;;;;;;;;;;;;;;;;;5030610;28;20047;-61
2023/07/26 15:24:48;;;;;;;;;;;;;;;;;;5031314;28;19925;-61
2023/07/26 15:27:14;;;;;;;;;;;;;;;;;;5049007;28;19924;-61
2023/07/26 15:29:41;;;;;;;;;;;;;;;;;;5048303;28;19936;-61
2023/07/26 15:32:07;;;;;;;;;;;;;;;;;;5047134;28;19948;-61
2023/07/26 15:34:33;;;;;;;;;;;;;;;;;;5045744;28;19921;-61
2023/07/26 15:36:58;;;;;;;;;;;;;;;;;;5048798;28;19944;-61
2023/07/26 15:39:24;;;;;;;;;;;;;;;;;;5048516;28;20401;-61
2023/07/26 15:41:50;;;;;;;;;;;;;;;;;;5050633;28;20015;-61
2023/07/26 15:44:16;;;;;;;;;;;;;;;;;;5032028;28;19935;-61
2023/07/26 15:46:42;;;;;;;;;;;;;;;;;;5050484;28;20273;-61
2023/07/26 15:49:08;;;;;;;;;;;;;;;;;;5051394;28;19921;-60
2023/07/26 15:51:34;;;;;;;;;;;;;;;;;;5032798;28;20554;-61
2023/07/26 15:54:00;;;;;;;;;;;;;;;;;;5050849;28;19968;-61
2023/07/26 15:56:26;;;;;;;;;;;;;;;;;;5050059;28;20297;-61
2023/07/26 15:58:52;;;;;;;;;;;;;;;;;;5050631;28;20401;-61
2023/07/26 16:01:19;;;;;;;;;;;;;;;;;;5032038;28;19925;-61
2023/07/26 16:03:45;;;;;;;;;;;;;;;;;;5031882;28;19920;-61
2023/07/26 16:06:11;;;;;;;;;;;;;;;;;;5049168;28;19927;-61
2023/07/26 16:08:37;;;;;;;;;;;;;;;;;;5044170;28;20000;-61
2023/07/26 16:11:03;;;;;;;;;;;;;;;;;;5030435;28;19921;-61
2023/07/26 16:13:29;;;;;;;;;;;;;;;;;;5047757;28;19921;-61
2023/07/26 16:15:56;;;;;;;;;;;;;;;;;;5050625;28;19943;-61
2023/07/26 16:18:23;;;;;;;;;;;;;;;;;;5032747;28;20362;-61
2023/07/26 16:20:49;;;;;;;;;;;;;;;;;;5031502;28;19925;-61
2023/07/26 16:23:15;;;;;;;;;;;;;;;;;;5050635;28;20008;-61
2023/07/26 16:25:42;;;;;;;;;;;;;;;;;;5050170;28;19933;-61
2023/07/26 16:28:08;;;;;;;;;;;;;;;;;;5050503;28;19925;-61
2023/07/26 16:30:34;;;;;;;;;;;;;;;;;;5049915;28;19928;-61
2023/07/26 16:33:00;;;;;;;;;;;;;;;;;;5052230;28;19921;-61
2023/07/26 16:35:26;;;;;;;;;;;;;;;;;;5053774;28;20488;-61
2023/07/26 16:37:52;;;;;;;;;;;;;;;;;;5052699;28;19943;-61